WXForecasting.com
Aberdeen, SD - Weather Station Data
Daily Summary for April 22, 2017 Units:  English    Metric   Both
« Previous Day
Next Day »
Daily Weekly Monthly Yearly Custom
  High: Low: Average:
Temperature: 71.0 °F 36.9 °F 55.3 °F
Dew Point: 45.0 °F 31.0 °F 37.9 °F
Humidity: 88 % 24 % 57 %
Wind Speed: 17.0 mph 0.0 mph 3.9 mph
Wind Gust: 21.0 mph - -
Wind:- - SW
Pressure: 30.30 in 30.06 in -
Precipitation: 0.00 in    
Historical Graphs
 
 
Tabular Data for April 22, 2017
Time Temperature Dew Point Pressure Wind Wind Speed Wind Gust Humidity Rainfall Rate (Hourly) solar Conditions
00:04 45.1 °F 38.0 °F 30.26 in Calm     75 % 0.00 in 0 W/m2
00:17 44.7 °F 37.0 °F 30.26 in Calm     75 % 0.00 in 0 W/m2
00:32 44.0 °F 37.0 °F 30.26 in Calm     76 % 0.00 in 0 W/m2
00:47 43.5 °F 37.0 °F 30.26 in Calm     78 % 0.00 in 0 W/m2
01:03 43.5 °F 37.0 °F 30.26 in Calm     78 % 0.00 in 0 W/m2
01:17 42.8 °F 36.0 °F 30.26 in Calm     78 % 0.00 in 0 W/m2
01:32 42.4 °F 36.0 °F 30.26 in Calm     79 % 0.00 in 0 W/m2
01:47 41.7 °F 36.0 °F 30.26 in Calm     80 % 0.00 in 0 W/m2
02:03 40.9 °F 35.0 °F 30.27 in Calm     80 % 0.00 in 0 W/m2
02:17 40.1 °F 35.0 °F 30.26 in Calm     82 % 0.00 in 0 W/m2
02:33 39.5 °F 34.0 °F 30.26 in Calm     82 % 0.00 in 0 W/m2
02:47 39.1 °F 34.0 °F 30.27 in Calm     83 % 0.00 in 0 W/m2
03:03 39.1 °F 35.0 °F 30.26 in Calm   1.0 mph 84 % 0.00 in 0 W/m2
03:17 40.6 °F 37.0 °F 30.26 in Calm   2.0 mph 86 % 0.00 in 0 W/m2
03:33 41.8 °F 37.0 °F 30.26 in Calm   1.0 mph 83 % 0.00 in 0 W/m2
03:48 42.5 °F 37.0 °F 30.27 in South 1.0 mph 2.0 mph 82 % 0.00 in 0 W/m2
04:03 43.0 °F 37.0 °F 30.27 in South 2.0 mph 3.0 mph 80 % 0.00 in 0 W/m2
04:18 43.1 °F 37.0 °F 30.27 in South 1.0 mph 3.0 mph 79 % 0.00 in 0 W/m2
04:33 43.2 °F 37.0 °F 30.27 in Calm   3.0 mph 79 % 0.00 in 0 W/m2
04:48 42.5 °F 37.0 °F 30.27 in Calm   3.0 mph 80 % 0.00 in 0 W/m2
05:03 41.8 °F 36.0 °F 30.28 in Calm   2.0 mph 80 % 0.00 in 0 W/m2
05:18 40.9 °F 35.0 °F 30.28 in Calm     80 % 0.00 in 0 W/m2
05:33 40.4 °F 35.0 °F 30.28 in Calm     82 % 0.00 in 0 W/m2
05:48 39.9 °F 35.0 °F 30.27 in Calm     83 % 0.00 in 0 W/m2
06:03 39.0 °F 34.0 °F 30.27 in Calm     83 % 0.00 in 0 W/m2
06:18 38.1 °F 34.0 °F 30.28 in Calm     84 % 0.00 in 0 W/m2
06:33 37.4 °F 33.0 °F 30.28 in Calm     84 % 0.00 in 0 W/m2
06:48 37.0 °F 33.0 °F 30.29 in Calm     85 % 0.00 in 11 W/m2
07:03 36.9 °F 33.0 °F 30.29 in Calm     86 % 0.00 in 18 W/m2
07:18 37.0 °F 34.0 °F 30.29 in Calm     87 % 0.00 in 26 W/m2
07:33 37.8 °F 34.0 °F 30.30 in Calm   1.0 mph 87 % 0.00 in 33 W/m2
07:48 39.2 °F 36.0 °F 30.30 in Calm   1.0 mph 88 % 0.00 in 135 W/m2
08:04 42.6 °F 38.0 °F 30.30 in WSW 3.0 mph 7.0 mph 84 % 0.00 in 167 W/m2
08:18 45.6 °F 39.0 °F 30.30 in WSW 1.0 mph 4.0 mph 79 % 0.00 in 237 W/m2
08:33 48.0 °F 40.0 °F 30.30 in SW 3.0 mph 5.0 mph 75 % 0.00 in 299 W/m2
08:48 50.2 °F 42.0 °F 30.29 in SW 4.0 mph 6.0 mph 73 % 0.00 in 313 W/m2
09:03 51.5 °F 42.0 °F 30.29 in SSW 4.0 mph 7.0 mph 70 % 0.00 in 360 W/m2
09:18 52.8 °F 42.0 °F 30.29 in SW 5.0 mph 11.0 mph 67 % 0.00 in 424 W/m2
09:33 54.4 °F 44.0 °F 30.28 in South 2.0 mph 11.0 mph 67 % 0.00 in 461 W/m2
09:49 56.3 °F 42.0 °F 30.28 in SSW 6.0 mph 11.0 mph 60 % 0.00 in 504 W/m2
10:04 56.8 °F 44.0 °F 30.27 in SSW 3.0 mph 10.0 mph 62 % 0.00 in 557 W/m2
10:20 58.6 °F 44.0 °F 30.27 in SW 8.0 mph 9.0 mph 59 % 0.00 in 596 W/m2
10:34 59.5 °F 44.0 °F 30.27 in SSW 7.0 mph 11.0 mph 56 % 0.00 in 612 W/m2
10:49 60.7 °F 44.0 °F 30.27 in WSW 10.0 mph 11.0 mph 54 % 0.00 in 664 W/m2
11:04 61.2 °F 44.0 °F 30.26 in SSW 5.0 mph 14.0 mph 53 % 0.00 in 694 W/m2
11:19 62.9 °F 45.0 °F 30.26 in WSW 8.0 mph 11.0 mph 53 % 0.00 in 731 W/m2
11:34 63.8 °F 44.0 °F 30.25 in WSW 9.0 mph 15.0 mph 49 % 0.00 in 803 W/m2
11:49 63.7 °F 41.0 °F 30.25 in SW 5.0 mph 15.0 mph 43 % 0.00 in 779 W/m2
12:04 63.7 °F 43.0 °F 30.24 in South 7.0 mph 16.0 mph 47 % 0.00 in 798 W/m2
12:19 65.0 °F 43.0 °F 30.24 in SW 8.0 mph 15.0 mph 45 % 0.00 in 816 W/m2
12:34 65.3 °F 41.0 °F 30.23 in South 4.0 mph 13.0 mph 41 % 0.00 in 840 W/m2
12:49 65.4 °F 41.0 °F 30.23 in SSW 8.0 mph 12.0 mph 41 % 0.00 in 879 W/m2
13:05 65.4 °F 40.0 °F 30.23 in WSW 8.0 mph 16.0 mph 40 % 0.00 in 870 W/m2
13:19 66.4 °F 45.0 °F 30.22 in WNW 1.0 mph 10.0 mph 46 % 0.00 in 861 W/m2
13:35 67.2 °F 42.0 °F 30.22 in WSW 17.0 mph 17.0 mph 40 % 0.00 in 863 W/m2
13:50 67.1 °F 42.0 °F 30.21 in SW 6.0 mph 18.0 mph 41 % 0.00 in 856 W/m2
14:05 67.2 °F 41.0 °F 30.20 in WSW 4.0 mph 15.0 mph 39 % 0.00 in 856 W/m2
14:20 67.5 °F 42.0 °F 30.20 in WSW 7.0 mph 18.0 mph 39 % 0.00 in 846 W/m2
14:35 67.9 °F 41.0 °F 30.19 in SW 9.0 mph 17.0 mph 37 % 0.00 in 830 W/m2
14:50 68.9 °F 41.0 °F 30.19 in SSW 9.0 mph 17.0 mph 37 % 0.00 in 812 W/m2
15:05 68.8 °F 43.0 °F 30.18 in SW 4.0 mph 17.0 mph 39 % 0.00 in 800 W/m2
15:20 68.7 °F 41.0 °F 30.17 in SSW 6.0 mph 18.0 mph 36 % 0.00 in 779 W/m2
15:35 70.2 °F 42.0 °F 30.16 in SSW 10.0 mph 15.0 mph 36 % 0.00 in 756 W/m2
15:50 69.6 °F 40.0 °F 30.16 in West 11.0 mph 18.0 mph 34 % 0.00 in 729 W/m2
16:05 69.6 °F 39.0 °F 30.15 in WSW 8.0 mph 18.0 mph 33 % 0.00 in 696 W/m2
16:20 69.8 °F 39.0 °F 30.14 in SSW 10.0 mph 17.0 mph 33 % 0.00 in 664 W/m2
16:35 71.0 °F 40.0 °F 30.13 in SW 8.0 mph 14.0 mph 32 % 0.00 in 629 W/m2
16:50 70.6 °F 34.0 °F 30.13 in WSW 11.0 mph 21.0 mph 26 % 0.00 in 598 W/m2
17:05 70.3 °F 35.0 °F 30.12 in West 8.0 mph 16.0 mph 27 % 0.00 in 557 W/m2
17:20 70.9 °F 35.0 °F 30.13 in WSW 5.0 mph 19.0 mph 27 % 0.00 in 515 W/m2
17:35 70.3 °F 35.0 °F 30.12 in WSW 9.0 mph 19.0 mph 27 % 0.00 in 473 W/m2
17:50 70.8 °F 35.0 °F 30.12 in SW 5.0 mph 16.0 mph 27 % 0.00 in 427 W/m2
18:05 70.4 °F 33.0 °F 30.11 in SW 6.0 mph 20.0 mph 25 % 0.00 in 383 W/m2
18:20 70.5 °F 32.0 °F 30.10 in SW 8.0 mph 13.0 mph 24 % 0.00 in 336 W/m2
18:35 69.7 °F 31.0 °F 30.09 in SW 8.0 mph 19.0 mph 24 % 0.00 in 35 W/m2
18:50 69.4 °F 31.0 °F 30.08 in SSW 5.0 mph 18.0 mph 24 % 0.00 in 32 W/m2
19:05 69.1 °F 32.0 °F 30.08 in SW 9.0 mph 16.0 mph 25 % 0.00 in 28 W/m2
19:20 68.8 °F 33.0 °F 30.08 in SW 9.0 mph 14.0 mph 27 % 0.00 in 26 W/m2
19:35 68.1 °F 33.0 °F 30.08 in SW 2.0 mph 10.0 mph 27 % 0.00 in 23 W/m2
19:50 67.4 °F 35.0 °F 30.07 in SW 6.0 mph 10.0 mph 30 % 0.00 in 19 W/m2
20:05 66.2 °F 35.0 °F 30.07 in SSW 6.0 mph 9.0 mph 32 % 0.00 in 12 W/m2
20:20 64.8 °F 36.0 °F 30.07 in Calm   8.0 mph 34 % 0.00 in 7 W/m2
20:35 63.3 °F 35.0 °F 30.07 in SW 3.0 mph 8.0 mph 35 % 0.00 in 0 W/m2
20:50 62.0 °F 36.0 °F 30.07 in SW 1.0 mph 8.0 mph 38 % 0.00 in 0 W/m2
21:05 60.3 °F 37.0 °F 30.07 in South 2.0 mph 5.0 mph 42 % 0.00 in 0 W/m2
21:20 58.8 °F 37.0 °F 30.07 in SSW 2.0 mph 5.0 mph 44 % 0.00 in 0 W/m2
21:35 57.7 °F 37.0 °F 30.07 in SSW 2.0 mph 4.0 mph 47 % 0.00 in 0 W/m2
21:50 56.2 °F 38.0 °F 30.07 in SW 1.0 mph 6.0 mph 50 % 0.00 in 0 W/m2
22:05 55.4 °F 38.0 °F 30.07 in SSW 2.0 mph 5.0 mph 52 % 0.00 in 0 W/m2
22:20 54.4 °F 38.0 °F 30.06 in SSW 2.0 mph 5.0 mph 55 % 0.00 in 0 W/m2
22:35 53.6 °F 38.0 °F 30.07 in South 6.0 mph 6.0 mph 57 % 0.00 in 0 W/m2
22:50 53.1 °F 38.0 °F 30.06 in SSW 2.0 mph 6.0 mph 58 % 0.00 in 0 W/m2
23:07 52.7 °F 39.0 °F 30.06 in SSW 2.0 mph 8.0 mph 59 % 0.00 in 0 W/m2
23:20 52.5 °F 39.0 °F 30.06 in South 4.0 mph 9.0 mph 60 % 0.00 in 0 W/m2
23:35 52.3 °F 39.0 °F 30.06 in NNW 5.0 mph 7.0 mph 60 % 0.00 in 0 W/m2
23:50 53.4 °F 41.0 °F 30.09 in North 13.0 mph 13.0 mph 63 % 0.00 in 0 W/m2
Compliments of Weather Underground - 1 mb

38 Visitors online right now
Max visitors today: 102 at 11:00 am EDT
This month: 106 at 07-16-2017 08:33 am EDT
This year: 117 at 06-05-2017 05:49 pm EDT
All time: 117 at 06-05-2017 05:49 pm EDT
See Who is Online